Time;durP1;ratioP1;P1;durP2;ratioP2;P2;SDS_P1;SDS_P2;PMS_P1;PMS_P2;Temp;Humidity;BMP_temperature;BMP_pressure;BME280_temperature;BME280_humidity;BME280_pressure;Samples;Min_cycle;Max_cycle;Signal;HPM_P1;HPM_P2
2023/01/11 00:00:02;;;;;;;8.83;6.53;;;;;;;5.02;98.03;94282.56;5033846;28;20899;-86
2023/01/11 00:02:31;;;;;;;10.90;7.00;;;;;;;4.91;97.44;94285.91;5034033;28;20450;-85
2023/01/11 00:04:58;;;;;;;7.03;6.40;;;;;;;5.03;98.05;94289.41;5034365;28;20477;-85
2023/01/11 00:20:53;;;;;;;8.00;5.00;;;;;;;4.56;99.71;94306.63;5032646;28;20457;-85
2023/01/11 00:23:20;;;;;;;7.07;5.10;;;;;;;4.57;99.59;94307.47;5033624;28;21011;-86
2023/01/11 00:25:46;;;;;;;5.70;4.67;;;;;;;4.61;100.00;94314.09;5033878;28;20442;-85
2023/01/11 00:28:13;;;;;;;11.30;5.93;;;;;;;4.59;100.00;94306.41;5033787;28;21006;-86
2023/01/11 00:30:40;;;;;;;6.17;5.57;;;;;;;4.53;100.00;94306.88;5033578;28;20955;-85
2023/01/11 00:49:08;;;;;;;9.80;7.27;;;;;;;4.42;100.00;94313.75;4972959;28;20472;-85
2023/01/11 00:51:35;;;;;;;9.17;6.20;;;;;;;4.54;100.00;94312.88;4972675;28;20448;-85
2023/01/11 00:54:01;;;;;;;6.20;5.50;;;;;;;4.59;100.00;94315.97;4972647;28;20441;-85
2023/01/11 00:56:28;;;;;;;6.60;5.90;;;;;;;4.63;100.00;94315.69;4972826;28;20448;-85
2023/01/11 00:58:57;;;;;;;6.93;6.23;;;;;;;4.53;100.00;94317.25;4975141;28;20485;-85
2023/01/11 01:08:07;;;;;;;4.93;4.10;;;;;;;4.31;100.00;94323.09;4975636;28;20520;-85
2023/01/11 01:10:34;;;;;;;4.97;4.57;;;;;;;4.37;99.87;94326.25;4985080;28;20452;-85
2023/01/11 01:15:46;;;;;;;9.03;4.63;;;;;;;4.25;100.00;94327.91;4981290;28;20469;-85
2023/01/11 01:18:13;;;;;;;6.07;4.60;;;;;;;4.09;100.00;94322.97;4976092;28;20452;-85
2023/01/11 01:20:40;;;;;;;6.60;4.80;;;;;;;4.03;100.00;94325.94;5017378;28;20812;-85
2023/01/11 01:23:07;;;;;;;4.63;4.27;;;;;;;4.16;100.00;94329.38;5035062;28;20442;-85
2023/01/11 01:32:18;;;;;;;6.20;5.57;;;;;;;3.83;100.00;94336.88;5033712;28;20440;-85
2023/01/11 01:34:45;;;;;;;4.33;3.93;;;;;;;3.83;100.00;94331.69;5034693;28;20961;-85
2023/01/11 01:37:13;;;;;;;5.10;3.90;;;;;;;3.67;100.00;94342.25;5034590;28;20453;-85
2023/01/11 01:39:40;;;;;;;4.27;3.87;;;;;;;3.81;100.00;94346.53;5034770;28;20467;-85
2023/01/11 01:46:18;;;;;;;4.10;3.70;;;;;;;3.22;100.00;94343.53;5036287;28;20503;-85
2023/01/11 01:48:50;;;;;;;3.73;3.17;;;;;;;3.41;100.00;94342.19;5036155;28;20446;-85
2023/01/11 01:51:23;;;;;;;4.07;3.40;;;;;;;3.56;100.00;94329.16;5037125;28;20458;-85
2023/01/11 01:53:54;;;;;;;6.20;4.80;;;;;;;3.73;100.00;94324.50;5036549;28;20438;-85
2023/01/11 02:03:15;;;;;;;4.07;3.77;;;;;;;3.74;100.00;94328.75;5021672;28;20480;-85
2023/01/11 02:05:44;;;;;;;4.07;3.70;;;;;;;3.94;100.00;94339.56;5035786;28;20481;-85
2023/01/11 02:08:17;;;;;;;4.93;4.37;;;;;;;4.05;100.00;94342.28;5036538;28;20454;-85
2023/01/11 02:10:44;;;;;;;3.70;3.40;;;;;;;4.05;100.00;94344.88;5000403;28;20453;-85
2023/01/11 02:13:13;;;;;;;3.57;3.27;;;;;;;4.09;100.00;94361.91;5036286;28;20450;-85
2023/01/11 02:15:40;;;;;;;3.43;3.10;;;;;;;4.13;100.00;94371.13;5036000;28;20463;-85
2023/01/11 02:18:11;;;;;;;4.70;3.23;;;;;;;4.06;100.00;94369.91;5035817;28;20446;-85
2023/01/11 02:21:01;;;;;;;3.27;3.07;;;;;;;4.00;100.00;94367.69;5035996;28;20504;-85
2023/01/11 02:23:52;;;;;;;3.83;3.00;;;;;;;4.08;100.00;94373.22;5035818;28;20443;-85
2023/01/11 02:26:57;;;;;;;3.77;3.47;;;;;;;4.07;100.00;94375.91;5035727;28;20454;-85
2023/01/11 02:49:41;;;;;;;4.57;4.10;;;;;;;4.47;99.84;94410.38;5034276;28;20533;-85
2023/01/11 02:52:12;;;;;;;5.87;4.43;;;;;;;4.48;100.00;94407.66;5035247;28;21208;-85
2023/01/11 02:54:43;;;;;;;6.70;5.57;;;;;;;4.51;100.00;94401.44;5035426;28;20512;-85
2023/01/11 02:57:12;;;;;;;7.40;5.70;;;;;;;4.56;99.06;94414.94;5035057;28;20960;-85
2023/01/11 02:59:40;;;;;;;6.40;5.27;;;;;;;4.61;99.65;94416.28;5035089;28;20797;-85
2023/01/11 03:09:30;;;;;;;5.83;4.87;;;;;;;4.74;100.00;94408.47;5014264;28;20437;-85
2023/01/11 03:15:04;;;;;;;8.00;7.20;;;;;;;4.77;99.99;94408.25;5034746;28;20418;-85
2023/01/11 03:17:45;;;;;;;15.07;10.10;;;;;;;4.80;99.96;94396.81;5034734;28;20515;-84
2023/01/11 03:23:42;;;;;;;9.10;8.10;;;;;;;4.90;98.64;94398.63;5033639;28;20438;-85
2023/01/11 03:26:16;;;;;;;7.80;6.90;;;;;;;4.91;99.10;94397.69;5034709;28;20453;-85
2023/01/11 03:28:53;;;;;;;11.40;6.57;;;;;;;4.86;99.35;94397.19;5016920;28;20444;-85
2023/01/11 03:31:27;;;;;;;5.33;4.83;;;;;;;4.82;98.72;94407.94;5034309;28;20438;-85
2023/01/11 03:37:23;;;;;;;8.13;5.83;;;;;;;4.81;99.28;94404.50;5034486;28;20452;-85
2023/01/11 03:40:02;;;;;;;8.97;5.60;;;;;;;4.75;98.98;94412.72;5034245;28;20457;-85
2023/01/11 03:42:33;;;;;;;6.13;5.17;;;;;;;4.79;99.05;94413.34;5034953;28;20508;-85
2023/01/11 03:45:03;;;;;;;5.93;5.40;;;;;;;4.80;99.08;94415.00;5034065;28;20474;-85
2023/01/11 03:47:31;;;;;;;7.63;5.47;;;;;;;4.84;99.09;94419.88;5034507;28;20473;-85
2023/01/11 04:00:07;;;;;;;8.80;7.90;;;;;;;5.03;99.42;94411.63;5033290;28;20433;-85
2023/01/11 04:02:36;;;;;;;10.73;9.40;;;;;;;5.02;99.63;94411.72;5034639;28;20470;-84
2023/01/11 04:05:03;;;;;;;15.10;9.43;;;;;;;5.04;99.45;94410.69;5033860;28;20481;-85
2023/01/11 04:07:30;;;;;;;12.43;11.10;;;;;;;5.08;99.32;94411.28;5034057;28;20488;-85
2023/01/11 04:09:57;;;;;;;12.70;9.67;;;;;;;5.01;99.11;94412.66;5034045;28;20489;-84
2023/01/11 04:29:14;;;;;;;6.90;6.23;;;;;;;4.78;100.00;94454.09;5033909;28;20403;-84
2023/01/11 04:31:41;;;;;;;9.10;6.60;;;;;;;4.84;100.00;94453.66;5033523;28;20442;-84
2023/01/11 04:34:08;;;;;;;7.53;6.17;;;;;;;4.87;100.00;94458.66;5037428;28;20462;-84
2023/01/11 04:36:35;;;;;;;9.80;7.00;;;;;;;4.92;100.00;94453.97;5038217;28;20851;-84
2023/01/11 04:39:02;;;;;;;11.90;7.63;;;;;;;4.95;100.00;94460.75;5037657;28;20438;-84
2023/01/11 04:44:26;;;;;;;10.13;7.63;;;;;;;4.97;100.00;94467.50;5037579;28;20833;-84
2023/01/11 04:46:53;;;;;;;8.77;6.90;;;;;;;4.98;100.00;94468.31;5037898;28;20445;-84
2023/01/11 04:49:20;;;;;;;13.23;8.27;;;;;;;5.03;99.68;94461.03;5037840;28;20837;-84
2023/01/11 04:55:09;;;;;;;8.70;7.80;;;;;;;5.04;100.00;94473.09;5037576;28;20501;-85
2023/01/11 04:57:36;;;;;;;12.33;7.47;;;;;;;5.04;99.72;94482.66;5038000;28;20461;-84
2023/01/11 05:00:09;;;;;;;10.90;7.70;;;;;;;4.97;98.62;94472.69;5037870;28;20450;-84
2023/01/11 05:02:36;;;;;;;10.13;7.33;;;;;;;4.94;99.20;94482.47;5037724;28;20460;-86
2023/01/11 05:05:03;;;;;;;10.73;7.37;;;;;;;4.94;99.61;94485.91;5019236;28;20484;-84
2023/01/11 05:07:32;;;;;;;9.13;7.60;;;;;;;4.91;99.42;94483.50;5037050;28;20438;-84
2023/01/11 05:09:59;;;;;;;15.77;8.70;;;;;;;4.91;99.79;94486.09;5037267;28;20480;-84
2023/01/11 05:12:31;;;;;;;9.17;7.87;;;;;;;4.90;100.00;94491.41;5037385;28;20460;-84
2023/01/11 05:14:58;;;;;;;11.80;9.20;;;;;;;4.90;100.00;94494.81;5037949;28;20924;-86
2023/01/11 05:17:28;;;;;;;9.20;8.17;;;;;;;4.90;100.00;94492.22;5036948;28;20442;-83
2023/01/11 05:19:55;;;;;;;9.10;8.13;;;;;;;4.95;100.00;94495.38;5043418;28;20475;-84
2023/01/11 05:22:22;;;;;;;12.47;8.07;;;;;;;4.96;100.00;94498.78;5056910;28;20430;-83
2023/01/11 05:24:49;;;;;;;11.70;9.33;;;;;;;5.04;100.00;94493.06;5056354;28;20477;-84
2023/01/11 05:27:16;;;;;;;12.20;9.23;;;;;;;5.06;100.00;94499.81;5057248;28;20445;-86
2023/01/11 05:29:44;;;;;;;12.03;9.13;;;;;;;5.11;100.00;94502.09;5058135;28;20503;-89
2023/01/11 05:32:11;;;;;;;12.70;10.10;;;;;;;5.14;99.56;94500.09;5058370;28;20890;-88
2023/01/11 05:34:39;;;;;;;13.10;9.60;;;;;;;5.15;100.00;94499.16;5063975;28;20449;-87
2023/01/11 05:37:06;;;;;;;16.02;11.32;;;;;;;5.23;99.59;94515.09;5068606;28;20448;-87
2023/01/11 05:39:33;;;;;;;16.20;10.17;;;;;;;5.20;99.39;94511.84;5070393;28;20276;-89
2023/01/11 05:42:00;;;;;;;13.20;8.87;;;;;;;5.15;98.38;94508.72;5058664;28;20993;-89
2023/01/11 05:47:11;;;;;;;19.60;10.70;;;;;;;5.10;99.10;94523.84;5057489;28;20416;-88
2023/01/11 05:49:39;;;;;;;16.60;11.43;;;;;;;5.10;99.04;94526.44;5057013;28;20468;-87
2023/01/11 05:52:06;;;;;;;18.70;11.37;;;;;;;5.07;98.26;94531.84;5057279;28;20446;-88
2023/01/11 05:54:33;;;;;;;14.27;10.43;;;;;;;5.03;98.35;94528.63;5057294;28;20845;-88
2023/01/11 05:57:00;;;;;;;19.30;11.63;;;;;;;5.01;99.07;94527.91;5057138;28;20923;-83
2023/01/11 05:59:27;;;;;;;16.13;11.37;;;;;;;4.98;99.89;94521.16;5056673;28;20960;-89
2023/01/11 06:02:14;;;;;;;15.50;10.80;;;;;;;4.94;99.79;94535.31;5034979;28;20431;-89
2023/01/11 06:04:42;;;;;;;21.73;11.93;;;;;;;4.89;100.00;94536.53;5035078;28;20941;-89
2023/01/11 06:07:09;;;;;;;16.13;12.87;;;;;;;4.79;100.00;94543.31;5035365;28;20449;-88
2023/01/11 06:09:36;;;;;;;32.30;21.93;;;;;;;4.72;100.00;94545.50;5034920;28;20573;-88
2023/01/11 06:12:03;;;;;;;28.17;20.03;;;;;;;4.67;100.00;94547.56;5035019;28;20453;-88
2023/01/11 06:14:30;;;;;;;13.73;11.10;;;;;;;4.61;100.00;94550.56;5034965;28;20945;-88
2023/01/11 06:16:57;;;;;;;10.43;8.87;;;;;;;4.63;100.00;94559.94;5035247;28;20450;-89
2023/01/11 06:19:24;;;;;;;10.10;8.20;;;;;;;4.61;100.00;94566.16;5035926;28;20461;-83
2023/01/11 06:21:52;;;;;;;12.50;8.83;;;;;;;4.62;100.00;94566.03;5055408;28;20491;-87
2023/01/11 06:24:19;;;;;;;18.63;13.77;;;;;;;4.77;100.00;94576.34;5055716;28;20457;-85
2023/01/11 06:26:46;;;;;;;19.23;12.70;;;;;;;4.85;100.00;94582.69;5055644;28;20496;-88
2023/01/11 06:29:13;;;;;;;29.33;12.43;;;;;;;4.87;99.53;94580.81;5056707;28;20867;-89
2023/01/11 06:31:40;;;;;;;21.43;10.27;;;;;;;4.88;99.65;94592.06;5056759;28;20928;-89
2023/01/11 06:34:07;;;;;;;12.60;9.40;;;;;;;4.88;99.45;94592.88;5056406;28;20462;-87
2023/01/11 06:36:34;;;;;;;17.60;12.47;;;;;;;4.86;99.66;94593.94;5055547;28;20452;-82
2023/01/11 06:39:02;;;;;;;18.80;11.30;;;;;;;4.87;99.54;94596.41;5043290;28;20469;-84
2023/01/11 06:41:29;;;;;;;14.97;10.03;;;;;;;4.96;98.99;94590.63;5056380;28;20457;-88
2023/01/11 06:43:59;;;;;;;19.20;15.70;;;;;;;5.03;99.55;94585.84;5056484;28;20465;-88
2023/01/11 06:46:26;;;;;;;36.43;17.00;;;;;;;5.10;100.00;94576.66;5055611;28;20474;-87
2023/01/11 06:48:53;;;;;;;25.37;16.13;;;;;;;5.17;99.41;94587.47;5056225;28;20456;-87
2023/01/11 06:51:20;;;;;;;34.80;21.67;;;;;;;5.20;98.86;94593.31;5056155;28;20466;-87
2023/01/11 06:57:10;;;;;;;24.50;15.50;;;;;;;5.32;98.48;94596.84;5053845;28;20635;-88
2023/01/11 06:59:38;;;;;;;24.90;16.57;;;;;;;5.34;98.02;94605.38;5057682;28;20437;-86
2023/01/11 07:02:05;;;;;;;26.13;15.17;;;;;;;5.00;97.51;94604.25;5064762;28;20457;-88
2023/01/11 07:04:32;;;;;;;25.40;17.63;;;;;;;4.72;99.36;94617.44;5060380;28;20536;-87
2023/01/11 07:06:59;;;;;;;27.73;16.00;;;;;;;4.95;99.08;94620.16;5056372;28;20465;-88
2023/01/11 07:09:26;;;;;;;28.90;15.57;;;;;;;5.21;98.99;94617.56;5060710;28;20477;-88
2023/01/11 07:11:53;;;;;;;19.33;14.30;;;;;;;5.40;99.07;94620.56;5055685;28;20495;-87
2023/01/11 07:14:23;;;;;;;22.33;13.27;;;;;;;5.56;98.01;94626.38;5056413;28;20476;-88
2023/01/11 07:16:50;;;;;;;15.07;11.77;;;;;;;5.71;96.79;94629.66;5036038;28;20446;-87
2023/01/11 07:22:39;;;;;;;13.60;10.30;;;;;;;5.82;95.69;94636.75;5034963;28;20394;-86
2023/01/11 07:25:07;;;;;;;23.27;12.47;;;;;;;5.86;95.27;94636.41;5037494;28;20482;-87
2023/01/11 07:27:34;;;;;;;20.10;13.47;;;;;;;5.88;95.34;94638.91;5038449;28;20454;-85
2023/01/11 07:30:02;;;;;;;17.43;12.83;;;;;;;5.95;94.97;94636.72;5037091;28;20457;-87
2023/01/11 07:32:29;;;;;;;19.13;12.70;;;;;;;6.05;96.75;94632.53;5037671;28;20838;-86
2023/01/11 07:34:56;;;;;;;18.20;11.50;;;;;;;6.09;95.40;94650.44;5034492;28;20457;-82
2023/01/11 07:37:24;;;;;;;12.63;10.73;;;;;;;6.07;94.91;94649.72;5051350;28;20511;-84
2023/01/11 07:39:51;;;;;;;13.77;9.80;;;;;;;6.11;93.78;94650.34;5054844;28;20425;-88
2023/01/11 07:45:12;;;;;;;17.23;9.20;;;;;;;6.17;94.23;94661.16;5032578;28;20508;-86
2023/01/11 07:47:39;;;;;;;11.90;7.37;;;;;;;6.23;94.22;94657.28;5032600;28;20454;-86
2023/01/11 07:50:08;;;;;;;8.97;7.77;;;;;;;6.30;94.47;94652.44;5032759;28;20447;-86
2023/01/11 07:52:35;;;;;;;8.07;7.27;;;;;;;6.39;94.07;94654.41;5032423;28;20457;-87
2023/01/11 07:55:02;;;;;;;9.30;6.37;;;;;;;6.44;94.29;94660.94;5032766;28;20657;-87
2023/01/11 07:57:29;;;;;;;8.93;7.90;;;;;;;6.48;93.25;94667.59;5032512;28;20451;-86
2023/01/11 07:59:56;;;;;;;7.20;6.50;;;;;;;6.54;92.38;94676.75;5032282;28;20438;-86
2023/01/11 08:05:53;;;;;;;10.07;6.50;;;;;;;6.48;92.70;94685.00;5032270;28;20478;-87
2023/01/11 08:08:20;;;;;;;21.67;15.37;;;;;;;6.27;93.01;94694.34;5031631;28;20450;-87
2023/01/11 08:14:37;;;;;;;23.83;17.00;;;;;;;6.21;94.24;94693.84;5032289;28;20992;-87
2023/01/11 08:16:18;;;;;;;18.40;13.37;;;;;;;6.10;95.91;94704.22;5032122;28;20429;-86
2023/01/11 08:18:45;;;;;;;17.33;14.53;;;;;;;6.00;95.33;94713.59;5032679;28;20464;-86
2023/01/11 08:21:13;;;;;;;20.30;16.23;;;;;;;5.84;95.90;94718.19;5044246;28;20448;-85
2023/01/11 08:23:42;;;;;;;17.40;13.50;;;;;;;5.83;96.26;94717.34;5053595;28;20433;-86
2023/01/11 08:26:09;;;;;;;17.53;13.40;;;;;;;5.52;97.68;94718.63;5054344;28;20473;-87
2023/01/11 08:28:36;;;;;;;20.40;13.67;;;;;;;5.73;96.75;94720.66;5054808;28;20476;-86
2023/01/11 08:31:07;;;;;;;25.80;15.70;;;;;;;5.78;96.70;94721.19;5054425;28;20456;-87
2023/01/11 08:43:48;;;;;;;27.63;16.03;;;;;;;5.87;97.74;94744.00;5054165;28;20834;-87
2023/01/11 08:46:16;;;;;;;24.20;15.10;;;;;;;5.81;97.26;94747.03;5053909;28;20890;-87
2023/01/11 08:48:43;;;;;;;20.47;13.67;;;;;;;5.86;97.81;94750.97;5054223;28;20803;-87
2023/01/11 08:51:10;;;;;;;17.33;11.93;;;;;;;5.67;97.84;94753.16;5053887;28;20452;-87
2023/01/11 08:53:37;;;;;;;17.60;13.10;;;;;;;5.78;97.82;94749.81;5053841;28;20446;-88
2023/01/11 08:56:04;;;;;;;20.13;15.60;;;;;;;5.84;98.51;94749.41;5053856;28;20453;-87
2023/01/11 08:58:31;;;;;;;21.00;15.60;;;;;;;5.84;96.33;94758.06;5054338;28;20441;-86
2023/01/11 09:01:02;;;;;;;18.40;14.40;;;;;;;5.68;96.45;94749.63;5051970;28;20473;-87
2023/01/11 09:03:29;;;;;;;15.93;12.80;;;;;;;5.64;96.18;94762.94;5055314;28;20948;-87
2023/01/11 09:05:57;;;;;;;24.80;14.30;;;;;;;5.75;95.50;94763.88;5053739;28;20549;-88
2023/01/11 09:08:24;;;;;;;20.27;17.73;;;;;;;5.85;95.59;94764.09;5053851;28;20453;-84
2023/01/11 09:10:55;;;;;;;10.83;9.33;;;;;;;5.82;93.89;94751.31;5052911;28;20476;-84
2023/01/11 09:13:22;;;;;;;12.40;8.53;;;;;;;5.98;92.83;94762.34;5052821;28;21188;-84
2023/01/11 09:15:48;;;;;;;13.00;11.70;;;;;;;6.02;91.90;94755.97;5053220;28;20433;-84
2023/01/11 09:18:17;;;;;;;16.60;11.47;;;;;;;6.07;93.52;94756.53;5053043;28;20452;-84
2023/01/11 09:20:43;;;;;;;13.43;10.13;;;;;;;6.10;92.79;94768.50;5057342;28;20426;-84
2023/01/11 09:23:10;;;;;;;12.77;8.80;;;;;;;6.24;91.18;94754.50;5056869;28;20442;-84
2023/01/11 09:25:37;;;;;;;14.27;8.20;;;;;;;6.34;90.41;94755.50;5056771;28;20804;-84
2023/01/11 09:28:04;;;;;;;13.80;9.10;;;;;;;6.26;90.83;94761.25;5056949;28;20456;-84
2023/01/11 09:30:31;;;;;;;5.40;4.10;;;;;;;6.27;88.95;94762.94;5056987;28;20439;-84
2023/01/11 09:33:03;;;;;;;5.40;4.90;;;;;;;6.29;87.33;94763.66;5056332;28;20417;-84
2023/01/11 09:35:31;;;;;;;9.20;5.30;;;;;;;6.30;86.39;94769.69;5056451;28;20461;-84
2023/01/11 09:41:34;;;;;;;6.20;4.73;;;;;;;6.18;85.78;94763.59;5054272;28;20803;-88
2023/01/11 09:44:09;;;;;;;5.10;4.60;;;;;;;6.12;86.17;94770.06;5057284;28;20475;-86
2023/01/11 09:46:38;;;;;;;7.60;6.20;;;;;;;6.04;87.01;94766.28;5057113;28;20481;-90
2023/01/11 09:49:06;;;;;;;5.53;4.00;;;;;;;6.05;85.84;94770.56;5058182;28;20449;-91
2023/01/11 09:51:38;;;;;;;7.40;5.20;;;;;;;6.03;87.33;94775.88;5057654;28;20465;-90
2023/01/11 09:54:09;;;;;;;4.87;4.37;;;;;;;6.01;87.35;94782.97;5057672;28;20541;-90
2023/01/11 09:56:45;;;;;;;5.67;5.17;;;;;;;6.04;87.55;94781.91;5057042;28;20458;-89
2023/01/11 09:59:19;;;;;;;6.07;5.20;;;;;;;6.07;87.25;94772.16;5057752;28;20499;-87
2023/01/11 10:01:54;;;;;;;8.00;6.10;;;;;;;6.00;86.49;94778.69;5057046;28;20441;-90
2023/01/11 10:04:50;;;;;;;7.07;5.27;;;;;;;6.00;87.60;94780.47;5057191;28;20487;-89
2023/01/11 10:07:48;;;;;;;14.50;9.27;;;;;;;6.05;87.75;94770.56;5035221;28;20478;-90
2023/01/11 10:10:31;;;;;;;7.53;6.13;;;;;;;6.10;87.46;94776.31;5039090;28;20477;-87
2023/01/11 10:13:09;;;;;;;8.50;7.40;;;;;;;6.21;89.14;94779.00;5047094;28;20454;-86
2023/01/11 10:15:43;;;;;;;5.40;4.53;;;;;;;6.40;89.25;94783.78;5043442;28;20450;-89
2023/01/11 10:18:27;;;;;;;5.20;4.80;;;;;;;6.58;87.96;94779.00;5035274;28;20445;-88
2023/01/11 10:21:00;;;;;;;13.37;4.90;;;;;;;6.71;87.60;94777.22;5034694;28;20458;-87
2023/01/11 10:23:40;;;;;;;4.53;4.13;;;;;;;6.66;85.95;94779.31;5034678;28;21073;-88
2023/01/11 10:26:26;;;;;;;4.73;4.13;;;;;;;6.68;87.36;94773.06;5034361;28;20562;-86
2023/01/11 10:29:16;;;;;;;6.87;5.47;;;;;;;6.75;87.53;94769.06;5034234;28;20482;-85
2023/01/11 10:32:05;;;;;;;8.27;5.53;;;;;;;6.87;87.43;94780.38;5033045;28;20436;-88
2023/01/11 10:34:58;;;;;;;5.70;4.63;;;;;;;6.99;85.99;94774.28;5034020;28;20935;-85
2023/01/11 10:37:45;;;;;;;7.40;5.40;;;;;;;6.95;84.51;94772.84;5034085;28;20439;-89
2023/01/11 10:40:34;;;;;;;13.80;8.13;;;;;;;6.86;84.19;94775.25;5035140;28;20478;-90
2023/01/11 10:43:07;;;;;;;19.87;12.70;;;;;;;6.77;83.78;94772.38;5035328;28;20489;-88
2023/01/11 10:45:40;;;;;;;7.13;6.50;;;;;;;6.64;82.68;94774.19;5056671;28;20983;-87
2023/01/11 10:48:14;;;;;;;4.70;4.20;;;;;;;6.65;82.98;94768.06;5056039;28;20469;-86
2023/01/11 10:50:50;;;;;;;4.63;4.10;;;;;;;6.54;82.87;94754.94;5055610;28;20460;-86
2023/01/11 10:53:23;;;;;;;4.80;4.40;;;;;;;6.45;83.00;94766.03;5057511;28;20538;-87
2023/01/11 10:56:02;;;;;;;5.90;5.03;;;;;;;6.39;82.11;94758.66;5055947;28;20442;-87
2023/01/11 10:58:45;;;;;;;4.93;4.47;;;;;;;6.36;83.08;94762.31;5056012;28;20441;-89
2023/01/11 11:01:23;;;;;;;5.43;4.90;;;;;;;6.51;84.74;94752.56;5056759;28;20453;-90
2023/01/11 11:07:33;;;;;;;4.40;4.00;;;;;;;6.69;83.19;94756.47;5055967;28;20485;-90
2023/01/11 11:10:06;;;;;;;4.43;3.97;;;;;;;6.80;83.38;94760.91;5056274;28;20986;-87
2023/01/11 11:12:38;;;;;;;5.20;4.10;;;;;;;6.78;80.53;94758.41;5055906;28;20445;-90
2023/01/11 11:15:18;;;;;;;3.80;3.50;;;;;;;6.77;79.33;94761.94;5055948;28;20492;-91
2023/01/11 11:17:49;;;;;;;5.33;4.20;;;;;;;6.76;80.06;94770.72;5055664;28;20457;-91
2023/01/11 11:20:17;;;;;;;5.67;4.60;;;;;;;6.74;79.18;94767.41;5055987;28;20461;-89
2023/01/11 11:22:45;;;;;;;5.03;4.47;;;;;;;6.74;79.75;94763.94;5055898;28;20823;-90
2023/01/11 11:25:17;;;;;;;11.73;8.30;;;;;;;6.74;79.59;94771.78;5055556;28;20575;-90
2023/01/11 11:27:50;;;;;;;5.73;5.20;;;;;;;6.68;78.81;94759.19;5055667;28;20487;-90
2023/01/11 11:33:40;;;;;;;9.23;3.77;;;;;;;6.89;79.29;94767.22;5055041;28;20901;-91
2023/01/11 11:36:08;;;;;;;6.57;4.80;;;;;;;6.88;78.99;94773.38;5055997;28;20458;-90
2023/01/11 11:38:37;;;;;;;7.03;4.90;;;;;;;6.93;79.11;94771.25;5055477;28;20441;-89
2023/01/11 11:41:07;;;;;;;5.70;5.00;;;;;;;6.80;77.52;94773.94;5054999;28;20541;-90
2023/01/11 11:43:36;;;;;;;8.37;4.37;;;;;;;6.80;76.15;94781.75;5055248;28;20454;-90
2023/01/11 11:46:05;;;;;;;5.53;4.17;;;;;;;6.66;74.01;94784.53;5055417;28;20531;-90
2023/01/11 11:48:34;;;;;;;5.13;3.77;;;;;;;6.48;73.71;94787.50;5055141;28;20462;-90
2023/01/11 11:51:04;;;;;;;6.23;5.20;;;;;;;6.49;74.38;94788.31;5055119;28;21184;-91
2023/01/11 12:14:39;;;;;;;10.90;7.90;;;;;;;6.43;77.02;94781.78;5031560;28;20495;-90
2023/01/11 12:17:23;;;;;;;10.17;7.57;;;;;;;6.55;77.82;94782.66;5055179;28;20449;-91
2023/01/11 12:19:50;;;;;;;5.43;4.93;;;;;;;6.55;78.03;94781.84;5054597;28;20461;-90
2023/01/11 12:22:20;;;;;;;9.93;6.93;;;;;;;6.59;78.58;94781.50;5054750;28;20464;-91
2023/01/11 12:24:47;;;;;;;7.17;4.73;;;;;;;6.74;78.58;94779.59;5054584;28;20459;-92
2023/01/11 12:27:31;;;;;;;6.73;6.00;;;;;;;6.79;77.70;94778.31;5054487;28;20481;-90
2023/01/11 12:30:10;;;;;;;9.20;7.30;;;;;;;6.83;76.31;94787.59;5054766;28;20453;-90
2023/01/11 12:33:04;;;;;;;8.80;7.90;;;;;;;6.84;75.63;94789.25;5054790;28;20953;-90
2023/01/11 12:35:39;;;;;;;27.73;17.70;;;;;;;6.81;77.45;94792.09;4993402;28;20489;-90
2023/01/11 12:38:23;;;;;;;7.70;5.77;;;;;;;6.88;77.37;94789.03;4993521;28;20450;-90
2023/01/11 12:41:42;;;;;;;11.90;7.83;;;;;;;6.96;77.03;94791.94;4935959;29;20465;-90
2023/01/11 12:44:15;;;;;;;12.30;6.60;;;;;;;6.86;78.22;94796.13;4935499;29;20435;-91
2023/01/11 12:46:54;;;;;;;12.63;6.20;;;;;;;6.86;77.83;94798.75;4935701;29;20522;-91
2023/01/11 12:49:42;;;;;;;6.20;5.50;;;;;;;6.77;78.98;94793.25;4935661;29;20491;-90
2023/01/11 12:52:36;;;;;;;11.80;7.80;;;;;;;6.70;79.96;94801.63;4935480;29;20455;-91
2023/01/11 12:55:27;;;;;;;8.60;7.40;;;;;;;6.61;79.72;94795.25;4938676;29;20461;-91
2023/01/11 12:58:00;;;;;;;7.00;6.20;;;;;;;6.51;80.27;94796.88;4845798;29;20459;-91
2023/01/11 13:00:41;;;;;;;16.80;8.20;;;;;;;6.46;81.07;94810.22;4845988;29;20574;-90
2023/01/11 13:03:46;;;;;;;11.40;9.20;;;;;;;6.44;81.27;94808.66;4845860;29;20463;-91
2023/01/11 13:06:20;;;;;;;13.77;8.70;;;;;;;6.46;82.20;94810.22;4755972;30;21017;-90
2023/01/11 13:08:59;;;;;;;14.87;9.20;;;;;;;6.48;82.12;94800.53;4756090;30;20472;-90
2023/01/11 13:11:40;;;;;;;15.07;10.93;;;;;;;6.56;82.33;94809.56;4756062;30;20463;-91
2023/01/11 13:14:34;;;;;;;9.67;8.67;;;;;;;6.46;81.75;94820.66;4809599;29;20980;-91
2023/01/11 13:17:15;;;;;;;8.23;6.33;;;;;;;6.37;79.59;94826.50;4811063;29;20526;-91
2023/01/11 13:33:19;;;;;;;12.20;6.10;;;;;;;6.83;78.75;94825.88;4845116;29;20410;-90
2023/01/11 13:35:50;;;;;;;12.40;7.50;;;;;;;6.83;77.57;94823.25;4886270;29;21177;-90
2023/01/11 13:38:31;;;;;;;11.57;8.37;;;;;;;6.80;78.09;94826.94;4900674;29;20473;-91
2023/01/11 13:41:08;;;;;;;27.40;12.27;;;;;;;6.66;77.28;94827.09;4900504;29;20507;-88
2023/01/11 13:43:39;;;;;;;15.30;10.63;;;;;;;6.62;78.31;94832.59;4995181;28;20449;-90
2023/01/11 14:06:35;;;;;;;7.40;5.73;;;;;;;6.77;82.47;94828.91;5035767;28;20399;-90
2023/01/11 14:09:16;;;;;;;10.30;6.30;;;;;;;6.92;83.57;94842.63;5036919;28;20463;-89
2023/01/11 14:11:52;;;;;;;36.63;16.90;;;;;;;6.95;82.55;94842.44;5037002;28;20450;-89
2023/01/11 14:14:40;;;;;;;29.57;16.60;;;;;;;6.89;81.51;94840.25;5037268;28;20950;-90
2023/01/11 14:17:43;;;;;;;19.57;13.80;;;;;;;6.94;81.77;94832.91;5037057;28;20956;-92
2023/01/11 14:20:21;;;;;;;13.83;10.80;;;;;;;6.90;81.61;94842.75;4996358;28;20455;-89
2023/01/11 14:22:59;;;;;;;20.60;13.53;;;;;;;6.82;81.32;94845.91;4995647;28;20456;-92
2023/01/11 14:25:30;;;;;;;17.00;10.33;;;;;;;6.74;82.09;94853.44;4996013;28;20510;-90
2023/01/11 14:28:16;;;;;;;22.70;14.17;;;;;;;6.80;82.62;94849.56;4996298;28;20483;-95
2023/01/11 14:31:10;;;;;;;33.27;11.53;;;;;;;6.78;83.11;94854.88;4995956;28;20456;-93
2023/01/11 14:34:09;;;;;;;12.77;6.87;;;;;;;6.75;82.71;94855.09;4996241;28;20458;-93
2023/01/11 14:36:57;;;;;;;11.67;8.90;;;;;;;6.79;82.69;94858.34;4997322;28;20456;-93
2023/01/11 14:43:11;;;;;;;14.13;9.50;;;;;;;6.59;83.94;94859.72;5015959;28;20431;-92
2023/01/11 14:45:58;;;;;;;30.00;13.37;;;;;;;6.53;84.27;94871.41;5018614;28;20451;-92
2023/01/11 14:48:34;;;;;;;21.60;13.70;;;;;;;6.43;84.41;94870.38;5025087;28;20484;-92
2023/01/11 14:51:20;;;;;;;22.90;16.37;;;;;;;6.39;84.24;94873.31;5021802;28;20458;-93
2023/01/11 14:53:54;;;;;;;19.43;15.47;;;;;;;6.35;84.95;94880.47;5015945;28;20455;-94
2023/01/11 14:56:48;;;;;;;21.50;12.07;;;;;;;6.26;85.09;94878.50;5021956;28;20996;-93
2023/01/11 14:59:35;;;;;;;24.97;10.27;;;;;;;6.14;84.79;94881.97;5036668;28;20455;-91
2023/01/11 15:18:22;;;;;;;33.70;18.30;;;;;;;6.20;84.99;94887.59;5037212;28;20443;-93
2023/01/11 15:20:55;;;;;;;40.37;22.63;;;;;;;6.10;85.84;94894.38;5037152;28;20538;-91
2023/01/11 15:23:29;;;;;;;24.50;14.27;;;;;;;6.07;85.65;94891.09;5037049;28;20455;-92
2023/01/11 15:26:06;;;;;;;41.93;22.57;;;;;;;6.00;85.81;94895.91;5037510;28;20450;-92
2023/01/11 15:28:47;;;;;;;58.57;24.07;;;;;;;5.96;85.80;94902.25;5036586;28;20552;-92
2023/01/11 15:31:39;;;;;;;47.17;22.20;;;;;;;5.93;86.91;94899.03;5037756;28;20517;-93
2023/01/11 15:34:22;;;;;;;32.10;19.47;;;;;;;5.95;86.83;94895.38;4995952;28;20471;-93
2023/01/11 15:47:26;;;;;;;35.40;21.53;;;;;;;5.95;86.99;94903.19;4994423;28;20419;-92
2023/01/11 15:50:15;;;;;;;30.77;18.77;;;;;;;5.90;86.98;94911.31;4993014;28;20455;-93
2023/01/11 15:53:29;;;;;;;46.57;27.10;;;;;;;6.01;87.19;94909.75;4995012;28;20483;-90
2023/01/11 16:00:17;;;;;;;34.10;18.40;;;;;;;5.97;85.49;94919.53;4994245;28;20868;-87
2023/01/11 16:03:19;;;;;;;31.53;19.13;;;;;;;5.96;85.98;94923.09;4994668;28;20923;-88
2023/01/11 16:05:57;;;;;;;36.00;22.50;;;;;;;5.97;86.64;94923.91;4994881;28;20447;-89
2023/01/11 16:08:32;;;;;;;47.93;27.63;;;;;;;5.95;86.13;94923.19;4993636;28;20483;-90
2023/01/11 16:11:13;;;;;;;63.90;36.43;;;;;;;5.97;86.90;94929.97;5011443;28;20453;-89
2023/01/11 16:14:05;;;;;;;38.87;24.30;;;;;;;5.90;87.25;94928.72;5034896;28;20552;-87